Time;durP1;ratioP1;P1;durP2;ratioP2;P2;SDS_P1;SDS_P2;PMS_P1;PMS_P2;Temp;Humidity;BMP_temperature;BMP_pressure;BME280_temperature;BME280_humidity;BME280_pressure;Samples;Min_cycle;Max_cycle;Signal;HPM_P1;HPM_P2
2023/03/18 00:01:14;;;;;;;8.77;5.00;;;;;;;13.78;33.92;100712.56;5072303;28;20055;-65
2023/03/18 00:03:44;;;;;;;8.45;5.05;;;;;;;13.75;33.89;100710.97;5072655;28;20057;-65
2023/03/18 00:06:17;;;;;;;9.80;5.32;;;;;;;13.77;34.09;100710.00;5073891;28;20049;-65
2023/03/18 00:08:47;;;;;;;9.00;4.70;;;;;;;13.69;34.03;100697.94;5073944;28;20489;-66
2023/03/18 00:11:18;;;;;;;8.50;5.38;;;;;;;13.72;34.10;100699.59;5073976;28;20438;-66
2023/03/18 00:13:46;;;;;;;8.57;4.78;;;;;;;13.71;34.07;100704.09;5073987;28;20079;-66
2023/03/18 00:16:15;;;;;;;8.05;4.75;;;;;;;13.67;34.10;100699.88;5073948;28;20055;-66
2023/03/18 00:18:44;;;;;;;8.27;4.88;;;;;;;13.67;34.17;100699.88;5073751;28;20524;-66
2023/03/18 00:21:15;;;;;;;8.88;5.13;;;;;;;13.67;34.06;100690.97;5073883;28;20048;-66
2023/03/18 00:23:43;;;;;;;9.27;5.18;;;;;;;13.67;34.04;100697.19;5073675;28;20123;-66
2023/03/18 00:26:11;;;;;;;7.47;4.80;;;;;;;13.63;34.23;100694.84;5074190;28;20052;-65
2023/03/18 00:28:40;;;;;;;8.20;4.55;;;;;;;13.62;34.07;100688.63;5073633;28;20290;-66
2023/03/18 00:31:10;;;;;;;8.48;5.00;;;;;;;13.61;34.22;100684.22;5073616;28;20053;-66
2023/03/18 00:33:42;;;;;;;8.13;4.90;;;;;;;13.59;34.08;100685.25;5073381;28;20440;-65
2023/03/18 00:36:12;;;;;;;7.53;4.88;;;;;;;13.57;34.02;100688.03;5073863;28;20213;-65
2023/03/18 00:38:44;;;;;;;7.97;4.88;;;;;;;13.57;33.91;100693.41;5073415;28;20501;-65
2023/03/18 00:41:14;;;;;;;8.45;4.88;;;;;;;13.55;34.03;100684.59;5073057;28;20048;-67
2023/03/18 00:43:51;;;;;;;9.30;5.18;;;;;;;13.52;34.17;100687.50;5073262;28;20056;-66
2023/03/18 00:46:23;;;;;;;9.20;5.00;;;;;;;13.51;34.06;100683.09;5073248;28;20044;-65
2023/03/18 00:48:53;;;;;;;9.10;5.10;;;;;;;13.49;34.04;100690.34;5073394;28;20244;-66
2023/03/18 00:51:23;;;;;;;8.90;5.13;;;;;;;13.48;34.10;100687.78;5073077;28;20131;-65
2023/03/18 00:53:56;;;;;;;8.55;4.75;;;;;;;13.49;33.93;100686.81;5073139;28;20409;-66
2023/03/18 00:56:26;;;;;;;8.57;4.95;;;;;;;13.46;34.21;100682.53;5073154;28;20068;-65
2023/03/18 00:58:56;;;;;;;8.88;5.22;;;;;;;13.46;34.09;100690.56;5073001;28;20114;-65
2023/03/18 01:01:25;;;;;;;8.38;4.95;;;;;;;13.44;34.18;100681.78;5072870;28;20075;-66
2023/03/18 01:03:54;;;;;;;8.60;5.10;;;;;;;13.39;34.16;100681.19;5072956;28;20117;-65
2023/03/18 01:06:25;;;;;;;8.55;5.03;;;;;;;13.42;34.20;100681.03;5072859;28;20451;-65
2023/03/18 01:08:55;;;;;;;9.07;5.22;;;;;;;13.39;34.17;100674.03;5073084;28;20048;-65
2023/03/18 01:11:25;;;;;;;8.75;4.88;;;;;;;13.38;34.20;100674.97;5073317;28;20064;-65
2023/03/18 01:13:54;;;;;;;8.80;4.78;;;;;;;13.39;34.27;100667.81;5073441;28;20476;-65
2023/03/18 01:16:23;;;;;;;9.15;5.07;;;;;;;13.37;34.25;100670.59;5072848;28;20619;-65
2023/03/18 01:18:52;;;;;;;10.63;5.30;;;;;;;13.36;34.12;100662.66;5072867;28;20041;-65
2023/03/18 01:21:21;;;;;;;8.23;5.32;;;;;;;13.32;34.54;100666.50;5072597;28;20073;-64
2023/03/18 01:23:49;;;;;;;8.82;5.65;;;;;;;13.32;34.30;100658.47;5072637;28;20556;-66
2023/03/18 01:26:19;;;;;;;9.57;5.35;;;;;;;13.31;34.31;100659.41;5072506;28;20072;-65
2023/03/18 01:28:47;;;;;;;9.23;5.15;;;;;;;13.31;34.07;100659.41;5072333;28;20044;-64
2023/03/18 01:31:15;;;;;;;8.98;5.60;;;;;;;13.30;34.37;100655.00;5072393;28;20056;-64
2023/03/18 01:33:43;;;;;;;10.23;5.45;;;;;;;13.26;34.42;100649.00;5072404;28;20071;-65
2023/03/18 01:36:12;;;;;;;9.63;5.70;;;;;;;13.25;34.38;100639.25;5072369;28;20048;-64
2023/03/18 01:38:41;;;;;;;9.27;5.38;;;;;;;13.24;34.06;100644.72;5072341;28;20131;-65
2023/03/18 01:41:10;;;;;;;9.50;5.53;;;;;;;13.25;34.30;100643.75;5071323;28;20084;-66
2023/03/18 01:43:42;;;;;;;9.43;5.50;;;;;;;13.23;34.38;100641.16;5071962;28;20040;-65
2023/03/18 01:46:39;;;;;;;10.02;6.10;;;;;;;13.16;34.29;100638.00;5071268;28;20044;-65
2023/03/18 01:49:11;;;;;;;9.05;5.38;;;;;;;13.17;34.28;100631.66;5047428;28;20045;-65
2023/03/18 01:51:41;;;;;;;9.10;5.55;;;;;;;13.21;34.27;100643.06;5071258;28;20056;-65
2023/03/18 01:54:12;;;;;;;9.27;5.65;;;;;;;13.18;34.16;100629.84;5071408;28;20072;-65
2023/03/18 01:56:43;;;;;;;12.00;6.25;;;;;;;13.15;34.29;100630.91;5071315;28;20397;-64
2023/03/18 01:59:14;;;;;;;10.80;6.25;;;;;;;13.15;34.38;100633.59;5071234;28;20076;-65
2023/03/18 02:01:47;;;;;;;8.85;5.45;;;;;;;13.15;34.33;100633.59;5071310;28;20052;-66
2023/03/18 02:04:17;;;;;;;11.55;6.57;;;;;;;13.13;34.40;100635.53;5070958;28;20075;-66
2023/03/18 02:06:45;;;;;;;11.02;6.35;;;;;;;13.12;34.28;100636.47;5071078;28;20056;-66
2023/03/18 02:09:13;;;;;;;10.18;6.10;;;;;;;13.12;34.32;100639.16;5070988;28;20051;-65
2023/03/18 02:11:45;;;;;;;10.73;6.32;;;;;;;13.11;34.25;100633.88;5071012;28;20048;-63
2023/03/18 02:14:15;;;;;;;10.20;6.03;;;;;;;13.10;34.40;100627.66;5070835;28;20102;-66
2023/03/18 02:16:50;;;;;;;10.57;5.85;;;;;;;13.08;34.19;100624.22;5070879;28;20083;-65
2023/03/18 02:19:30;;;;;;;10.13;6.32;;;;;;;13.06;34.50;100628.84;5070902;28;20059;-66
2023/03/18 02:22:08;;;;;;;10.63;6.82;;;;;;;13.06;34.30;100626.16;5070766;28;20044;-66
2023/03/18 02:24:45;;;;;;;9.32;5.70;;;;;;;13.03;34.49;100612.97;5070928;28;20043;-65
2023/03/18 02:27:18;;;;;;;10.75;5.95;;;;;;;13.03;34.22;100623.69;5069814;28;20387;-65
2023/03/18 02:29:47;;;;;;;10.93;6.23;;;;;;;13.00;34.57;100618.50;5071032;28;20193;-66
2023/03/18 02:32:19;;;;;;;10.68;6.40;;;;;;;13.00;34.30;100615.81;5070786;28;20044;-65
2023/03/18 02:34:47;;;;;;;9.68;6.13;;;;;;;13.00;34.25;100620.31;5070784;28;20044;-65
2023/03/18 02:37:16;;;;;;;10.05;6.28;;;;;;;12.99;34.30;100624.81;5070660;28;20040;-65
2023/03/18 02:39:44;;;;;;;9.25;6.20;;;;;;;12.98;34.47;100623.09;5023730;28;1342213;-63
2023/03/18 02:42:13;;;;;;;10.95;6.18;;;;;;;12.98;34.43;100630.28;5071428;28;20044;-65
2023/03/18 02:44:47;;;;;;;10.68;6.55;;;;;;;12.95;34.41;100617.09;5071595;28;20444;-64
2023/03/18 02:47:21;;;;;;;11.30;6.45;;;;;;;12.94;34.36;100629.63;5071496;28;20355;-65
2023/03/18 02:49:50;;;;;;;10.77;6.30;;;;;;;12.92;34.25;100628.84;5071437;28;20040;-64
2023/03/18 02:52:18;;;;;;;9.70;6.50;;;;;;;12.93;34.43;100635.91;5071287;28;20044;-63
2023/03/18 02:54:46;;;;;;;9.52;6.10;;;;;;;12.92;34.27;100636.00;5071311;28;20131;-65
2023/03/18 02:57:14;;;;;;;10.10;6.15;;;;;;;12.90;34.44;100638.78;5071426;28;20555;-64
2023/03/18 02:59:46;;;;;;;11.00;6.22;;;;;;;12.89;34.40;100642.44;5071314;28;20482;-65
2023/03/18 03:02:15;;;;;;;10.63;6.63;;;;;;;12.88;34.41;100640.72;5071332;28;20040;-64
2023/03/18 03:04:43;;;;;;;10.32;6.25;;;;;;;12.87;34.45;100639.84;5071070;28;20086;-65
2023/03/18 03:07:12;;;;;;;11.55;6.93;;;;;;;12.83;34.47;100632.97;5071303;28;20045;-65
2023/03/18 03:09:40;;;;;;;11.80;6.47;;;;;;;12.84;34.49;100634.72;5071288;28;20051;-65
2023/03/18 03:12:09;;;;;;;9.90;6.55;;;;;;;12.83;34.40;100637.44;5071286;28;20119;-65
2023/03/18 03:14:37;;;;;;;11.25;6.38;;;;;;;12.83;34.40;100642.81;5071133;28;20547;-64
2023/03/18 03:17:06;;;;;;;10.70;6.15;;;;;;;12.80;34.53;100637.66;5071139;28;20051;-65
2023/03/18 03:19:34;;;;;;;10.73;5.95;;;;;;;12.80;34.57;100645.69;5071093;28;20055;-65
2023/03/18 03:22:03;;;;;;;9.10;6.05;;;;;;;12.80;34.49;100643.88;5069257;28;20041;-63
2023/03/18 03:24:31;;;;;;;9.55;5.78;;;;;;;12.78;34.31;100634.22;5071127;28;20124;-65
2023/03/18 03:26:59;;;;;;;9.43;6.03;;;;;;;12.77;34.59;100644.06;5071103;28;20049;-66
2023/03/18 03:29:28;;;;;;;9.25;5.95;;;;;;;12.76;34.51;100645.03;5071114;28;20448;-65
2023/03/18 03:31:56;;;;;;;11.30;6.20;;;;;;;12.75;34.54;100639.78;5070980;28;20044;-65
2023/03/18 03:34:25;;;;;;;9.15;6.00;;;;;;;12.74;34.40;100648.75;5071130;28;20080;-65
2023/03/18 03:36:54;;;;;;;10.07;6.32;;;;;;;12.72;34.53;100648.84;5070102;28;20068;-65
2023/03/18 03:39:22;;;;;;;11.38;6.28;;;;;;;12.70;34.55;100653.44;5074444;28;20054;-65
2023/03/18 03:41:51;;;;;;;9.65;5.60;;;;;;;12.70;34.55;100653.44;5074579;28;20053;-66
2023/03/18 03:44:20;;;;;;;9.43;6.38;;;;;;;12.69;34.58;100651.72;5074508;28;20053;-64
2023/03/18 03:46:48;;;;;;;10.82;6.80;;;;;;;12.69;34.42;100662.44;5074297;28;20044;-65
2023/03/18 03:49:17;;;;;;;10.90;6.50;;;;;;;12.67;34.53;100658.13;5074433;28;20064;-65
2023/03/18 03:51:47;;;;;;;10.88;6.55;;;;;;;12.65;34.54;100654.69;5074320;28;20044;-65
2023/03/18 03:54:15;;;;;;;10.85;6.40;;;;;;;12.66;34.75;100654.59;5074461;28;20072;-66
2023/03/18 03:56:43;;;;;;;9.32;5.78;;;;;;;12.64;34.62;100656.47;5074222;28;20398;-65
2023/03/18 03:59:11;;;;;;;10.70;6.00;;;;;;;12.64;34.49;100658.31;5074173;28;20048;-65
2023/03/18 04:01:40;;;;;;;10.18;6.03;;;;;;;12.60;34.63;100658.50;5074181;28;20485;-65
2023/03/18 04:04:08;;;;;;;9.80;6.15;;;;;;;12.59;34.47;100667.50;5074351;28;20252;-65
2023/03/18 04:06:36;;;;;;;10.50;5.70;;;;;;;12.59;34.61;100664.81;5074051;28;20098;-65
2023/03/18 04:09:05;;;;;;;10.15;6.15;;;;;;;12.58;34.53;100655.06;5074130;28;20102;-64
2023/03/18 04:11:33;;;;;;;11.10;6.43;;;;;;;12.57;34.47;100658.72;5073979;28;20045;-64
2023/03/18 04:14:02;;;;;;;10.00;6.07;;;;;;;12.56;34.53;100661.47;5073835;28;20052;-65
2023/03/18 04:16:30;;;;;;;10.10;6.10;;;;;;;12.53;34.65;100657.16;5073903;28;20064;-65
2023/03/18 04:18:58;;;;;;;10.32;6.20;;;;;;;12.51;34.40;100664.41;5073937;28;20057;-65
2023/03/18 04:21:26;;;;;;;10.25;6.13;;;;;;;12.53;34.49;100670.53;5073818;28;20048;-65
2023/03/18 04:23:55;;;;;;;10.43;6.43;;;;;;;12.50;34.68;100670.72;5073701;28;20091;-64
2023/03/18 04:26:24;;;;;;;11.20;6.13;;;;;;;12.48;34.29;100667.28;5073803;28;20501;-64
2023/03/18 04:28:53;;;;;;;9.38;5.97;;;;;;;12.48;34.60;100667.28;5073706;28;20146;-63
2023/03/18 04:31:21;;;;;;;9.57;5.80;;;;;;;12.48;34.58;100672.66;5073623;28;20052;-64
2023/03/18 04:33:49;;;;;;;10.73;6.38;;;;;;;12.48;34.38;100678.00;5073680;28;20045;-65
2023/03/18 04:36:17;;;;;;;9.77;6.13;;;;;;;12.45;34.54;100675.53;5073396;28;20406;-64
2023/03/18 04:38:45;;;;;;;11.90;6.35;;;;;;;12.46;34.70;100677.25;5073444;28;20540;-65
2023/03/18 04:41:14;;;;;;;9.60;6.38;;;;;;;12.44;34.55;100679.13;5073593;28;20048;-65
2023/03/18 04:43:44;;;;;;;8.82;6.00;;;;;;;12.44;34.78;100684.47;5073691;28;20044;-64
2023/03/18 04:46:12;;;;;;;9.77;6.30;;;;;;;12.41;34.81;100684.66;5073258;28;20051;-65
2023/03/18 04:48:40;;;;;;;8.77;5.82;;;;;;;12.38;34.44;100686.69;5078104;28;20041;-64
2023/03/18 04:51:09;;;;;;;9.20;5.90;;;;;;;12.41;34.63;100683.81;5077473;28;20100;-65
2023/03/18 04:53:37;;;;;;;10.45;6.10;;;;;;;12.37;34.77;100688.50;5076121;28;20490;-65
2023/03/18 04:56:07;;;;;;;10.70;6.40;;;;;;;12.38;34.55;100695.56;5073280;28;20045;-65
2023/03/18 04:58:36;;;;;;;9.93;6.18;;;;;;;12.37;34.51;100693.84;5073050;28;20375;-64
2023/03/18 05:01:06;;;;;;;10.68;5.60;;;;;;;12.35;34.61;100695.72;5072957;28;20040;-65
2023/03/18 05:03:34;;;;;;;9.25;5.60;;;;;;;12.36;34.56;100702.84;5072899;28;20099;-65
2023/03/18 05:06:02;;;;;;;10.25;6.38;;;;;;;12.33;34.50;100703.00;5073026;28;20098;-65
2023/03/18 05:08:30;;;;;;;8.88;5.93;;;;;;;12.33;34.62;100703.00;5072785;28;20051;-65
2023/03/18 05:10:59;;;;;;;10.60;6.10;;;;;;;12.33;34.69;100703.00;5072748;28;20071;-64
2023/03/18 05:13:28;;;;;;;10.25;6.20;;;;;;;12.32;34.60;100702.13;5071811;28;20053;-65
2023/03/18 05:15:56;;;;;;;10.43;6.50;;;;;;;12.26;34.70;100693.63;5072528;28;20059;-65
2023/03/18 05:18:25;;;;;;;10.60;5.97;;;;;;;12.29;34.65;100705.00;5072685;28;20056;-64
2023/03/18 05:20:53;;;;;;;10.45;5.95;;;;;;;12.29;34.58;100701.47;5072590;28;20072;-65
2023/03/18 05:23:22;;;;;;;11.00;5.75;;;;;;;12.29;34.69;100710.34;5072641;28;20146;-64
2023/03/18 05:25:51;;;;;;;9.25;6.07;;;;;;;12.26;34.56;100712.38;5072548;28;20052;-65
2023/03/18 05:28:20;;;;;;;10.55;6.43;;;;;;;12.28;34.62;100710.44;5072595;28;20044;-65
2023/03/18 05:30:48;;;;;;;9.48;5.50;;;;;;;12.24;34.47;100715.09;5072483;28;20079;-65
2023/03/18 05:33:18;;;;;;;10.02;5.97;;;;;;;12.26;34.51;100702.53;5072268;28;20047;-65
2023/03/18 05:35:50;;;;;;;9.23;5.95;;;;;;;12.25;34.72;100707.94;5072305;28;20036;-64
2023/03/18 05:38:19;;;;;;;9.35;6.32;;;;;;;12.25;34.71;100715.97;5072248;28;20409;-64
2023/03/18 05:40:47;;;;;;;9.77;5.95;;;;;;;12.23;34.67;100724.09;5072017;28;20064;-66
2023/03/18 05:43:17;;;;;;;9.13;5.70;;;;;;;12.20;34.65;100712.72;5072192;28;20067;-65
2023/03/18 05:45:45;;;;;;;9.55;5.95;;;;;;;12.20;34.74;100716.25;5072081;28;20046;-65
2023/03/18 05:48:14;;;;;;;8.70;5.28;;;;;;;12.16;34.76;100716.50;5072095;28;20048;-65
2023/03/18 05:50:43;;;;;;;8.82;5.35;;;;;;;12.16;34.73;100706.69;5072187;28;20426;-65
2023/03/18 05:53:15;;;;;;;9.05;5.82;;;;;;;12.19;34.74;100716.34;5072105;28;20044;-65
2023/03/18 05:55:43;;;;;;;10.35;5.82;;;;;;;12.19;34.54;100721.69;5072040;28;20041;-65
2023/03/18 05:58:12;;;;;;;11.10;6.20;;;;;;;12.17;34.77;100716.44;5071998;28;20048;-64
2023/03/18 06:00:40;;;;;;;9.15;5.60;;;;;;;12.18;34.68;100725.31;5071648;28;20044;-65
2023/03/18 06:03:09;;;;;;;8.45;5.38;;;;;;;12.17;34.94;100721.78;5072148;28;20052;-65
2023/03/18 06:05:37;;;;;;;9.38;5.80;;;;;;;12.16;34.77;100716.50;5071994;28;20401;-65
2023/03/18 06:08:05;;;;;;;10.60;6.05;;;;;;;12.17;34.62;100723.59;5072000;28;20054;-65
2023/03/18 06:10:37;;;;;;;9.27;5.70;;;;;;;12.16;35.03;100725.41;5071819;28;20486;-65
2023/03/18 06:13:06;;;;;;;9.48;5.90;;;;;;;12.16;34.92;100727.19;5071983;28;20056;-65
2023/03/18 06:15:34;;;;;;;9.63;5.85;;;;;;;12.15;34.76;100725.50;5071761;28;20520;-64
2023/03/18 06:18:03;;;;;;;8.73;5.70;;;;;;;12.15;34.73;100730.84;5071693;28;20047;-65
2023/03/18 06:20:32;;;;;;;8.15;5.10;;;;;;;12.14;34.96;100732.66;5071742;28;20051;-65
2023/03/18 06:23:00;;;;;;;8.60;5.55;;;;;;;12.14;35.08;100729.13;5071782;28;20044;-66
2023/03/18 06:25:28;;;;;;;7.82;4.80;;;;;;;12.15;34.53;100736.19;5072229;28;20079;-65
2023/03/18 06:27:58;;;;;;;9.23;5.40;;;;;;;12.15;34.97;100741.53;5071542;28;20508;-65
2023/03/18 06:30:27;;;;;;;8.65;5.45;;;;;;;12.14;34.85;100739.81;5071773;28;20075;-66
2023/03/18 06:32:55;;;;;;;9.27;5.43;;;;;;;12.09;34.97;100732.06;5071601;28;20044;-64
2023/03/18 06:35:25;;;;;;;8.73;5.45;;;;;;;12.10;34.93;100738.28;5103965;28;20056;-65
2023/03/18 06:37:54;;;;;;;9.50;5.65;;;;;;;12.13;34.91;100751.47;5071609;28;20123;-65
2023/03/18 06:40:22;;;;;;;10.75;5.90;;;;;;;12.09;34.84;100741.91;5071338;28;20056;-65
2023/03/18 06:42:51;;;;;;;8.43;5.10;;;;;;;12.11;35.03;100750.69;5071598;28;20053;-64
2023/03/18 06:45:21;;;;;;;9.30;5.38;;;;;;;12.10;34.98;100748.97;5071455;28;20551;-67
2023/03/18 06:47:51;;;;;;;8.20;5.30;;;;;;;12.12;34.75;100752.41;5071574;28;20044;-65
2023/03/18 06:50:19;;;;;;;9.05;5.30;;;;;;;12.12;34.99;100757.78;5071553;28;20105;-64
2023/03/18 06:52:48;;;;;;;8.50;5.32;;;;;;;12.10;35.04;100755.19;5071391;28;20049;-63
2023/03/18 06:55:16;;;;;;;11.68;5.97;;;;;;;12.12;34.81;100766.66;5071582;28;20506;-64
2023/03/18 06:57:45;;;;;;;8.40;5.28;;;;;;;12.11;34.92;100772.94;5071411;28;20547;-65
2023/03/18 07:00:14;;;;;;;8.00;5.10;;;;;;;12.12;34.99;100772.00;5071598;28;20048;-64
2023/03/18 07:02:45;;;;;;;8.40;5.10;;;;;;;12.11;35.21;100769.41;5071382;28;20128;-66
2023/03/18 07:05:13;;;;;;;9.68;5.32;;;;;;;12.10;34.83;100765.88;5071024;28;20102;-65
2023/03/18 07:07:41;;;;;;;8.70;5.75;;;;;;;12.11;34.99;100766.75;5071527;28;20044;-65
2023/03/18 07:10:18;;;;;;;8.50;5.30;;;;;;;12.11;35.16;100772.94;5071389;28;20048;-65
2023/03/18 07:12:47;;;;;;;8.93;5.50;;;;;;;12.11;35.21;100767.59;5073249;28;20387;-64
2023/03/18 07:15:15;;;;;;;10.65;5.55;;;;;;;12.12;35.33;100768.47;5075155;28;20094;-65
2023/03/18 07:17:45;;;;;;;8.85;5.38;;;;;;;12.11;35.19;100764.06;5074862;28;20048;-65
2023/03/18 07:20:14;;;;;;;8.85;5.50;;;;;;;12.11;35.19;100761.41;5075707;28;20453;-67
2023/03/18 07:22:42;;;;;;;8.88;5.20;;;;;;;12.12;35.17;100765.78;5075157;28;20051;-65
2023/03/18 07:25:12;;;;;;;7.28;5.00;;;;;;;12.12;35.20;100768.47;5075002;28;20052;-65
2023/03/18 07:27:41;;;;;;;7.97;5.22;;;;;;;12.12;35.06;100771.13;5074723;28;20045;-64
2023/03/18 07:30:10;;;;;;;8.77;5.32;;;;;;;12.08;34.92;100764.25;5075406;28;20044;-64
2023/03/18 07:32:39;;;;;;;7.68;4.65;;;;;;;12.12;35.18;100768.47;5075080;28;20045;-66
2023/03/18 07:35:12;;;;;;;9.63;5.55;;;;;;;12.12;35.20;100765.78;5074618;28;20040;-64
2023/03/18 07:37:41;;;;;;;8.88;4.85;;;;;;;12.13;35.04;100775.53;5074873;28;20136;-66
2023/03/18 07:40:11;;;;;;;8.30;5.00;;;;;;;12.12;35.37;100773.81;5074371;28;20102;-65
2023/03/18 07:42:40;;;;;;;8.55;4.90;;;;;;;12.14;34.97;100777.25;5074739;28;20101;-65
2023/03/18 07:45:10;;;;;;;8.73;5.10;;;;;;;12.13;35.09;100776.38;5074435;28;20098;-65
2023/03/18 07:47:38;;;;;;;9.68;5.05;;;;;;;12.14;35.14;100771.91;5074676;28;20364;-64
2023/03/18 07:50:11;;;;;;;9.05;5.60;;;;;;;12.12;35.22;100776.47;5074415;28;20528;-64
2023/03/18 07:52:39;;;;;;;8.05;5.20;;;;;;;12.15;35.09;100781.66;5074754;28;20048;-64
2023/03/18 07:55:09;;;;;;;8.05;5.20;;;;;;;12.14;35.33;100782.59;5074736;28;20052;-64
2023/03/18 07:57:37;;;;;;;9.77;5.10;;;;;;;12.15;35.27;100789.66;5074680;28;20040;-64
2023/03/18 08:00:07;;;;;;;7.95;5.20;;;;;;;12.14;35.24;100786.13;5075636;28;20053;-65
2023/03/18 08:02:35;;;;;;;8.48;4.78;;;;;;;12.17;35.38;100785.13;5074535;28;20079;-65
2023/03/18 08:05:05;;;;;;;8.57;4.82;;;;;;;12.16;35.39;100781.59;5074467;28;20466;-65
2023/03/18 08:07:36;;;;;;;8.15;5.00;;;;;;;12.14;35.30;100778.09;5074247;28;20045;-66
2023/03/18 08:10:06;;;;;;;7.28;4.90;;;;;;;12.17;35.36;100783.31;5074078;28;20040;-64
2023/03/18 08:12:34;;;;;;;7.68;4.55;;;;;;;12.17;35.41;100782.44;5073885;28;20040;-65
2023/03/18 08:15:19;;;;;;;9.38;4.90;;;;;;;12.18;35.34;100773.47;5073832;28;20044;-69
2023/03/18 08:17:47;;;;;;;7.05;4.60;;;;;;;12.18;35.34;100771.66;5073557;28;20493;-65
2023/03/18 08:20:15;;;;;;;7.93;5.28;;;;;;;12.20;35.53;100774.22;5074420;28;20079;-65
2023/03/18 08:22:47;;;;;;;8.90;4.97;;;;;;;12.19;35.50;100775.19;5073541;28;20494;-65
2023/03/18 08:25:16;;;;;;;8.40;4.78;;;;;;;12.19;35.61;100764.50;5073734;28;20482;-66
2023/03/18 08:27:44;;;;;;;7.63;4.47;;;;;;;12.20;35.56;100767.06;5073705;28;20090;-64
2023/03/18 08:30:15;;;;;;;7.63;4.50;;;;;;;12.22;35.37;100775.00;5073531;28;20497;-66
2023/03/18 08:32:43;;;;;;;8.40;4.75;;;;;;;12.22;35.45;100769.66;5073737;28;20055;-65
2023/03/18 08:35:14;;;;;;;8.32;4.47;;;;;;;12.24;35.36;100778.44;5073394;28;20040;-64
2023/03/18 08:37:42;;;;;;;7.30;4.55;;;;;;;12.23;35.64;100766.00;5073361;28;20044;-66
2023/03/18 08:40:13;;;;;;;7.20;4.90;;;;;;;12.23;35.71;100763.34;5073336;28;20056;-66
2023/03/18 08:42:41;;;;;;;9.48;5.10;;;;;;;12.26;35.42;100765.84;5073437;28;20123;-66
2023/03/18 08:45:11;;;;;;;7.28;4.28;;;;;;;12.27;35.54;100763.09;5073337;28;20448;-66
2023/03/18 08:47:40;;;;;;;6.88;4.25;;;;;;;12.26;35.55;100760.50;5073366;28;20052;-66
2023/03/18 08:50:09;;;;;;;7.82;4.20;;;;;;;12.29;35.51;100760.31;5073460;28;20052;-64
2023/03/18 08:52:38;;;;;;;7.32;4.50;;;;;;;12.31;35.73;100769.09;5073277;28;20048;-66
2023/03/18 08:55:08;;;;;;;6.70;4.50;;;;;;;12.31;35.57;100769.09;5073311;28;20127;-65
2023/03/18 08:57:38;;;;;;;6.85;4.38;;;;;;;12.30;35.84;100756.69;5073109;28;20401;-64
2023/03/18 09:00:07;;;;;;;7.13;3.97;;;;;;;12.34;35.81;100768.91;5072963;28;20040;-66
2023/03/18 09:02:36;;;;;;;7.97;4.40;;;;;;;12.32;35.71;100752.09;5073153;28;20044;-65
2023/03/18 09:05:05;;;;;;;6.10;4.03;;;;;;;12.34;35.75;100755.53;5073351;28;20053;-65
2023/03/18 09:07:33;;;;;;;6.82;4.05;;;;;;;12.34;35.65;100758.22;5073680;28;20040;-65
2023/03/18 09:10:03;;;;;;;6.78;4.10;;;;;;;12.37;35.60;100763.41;5073331;28;20036;-65
2023/03/18 09:12:31;;;;;;;6.78;4.25;;;;;;;12.39;35.85;100761.50;5073341;28;20055;-64
2023/03/18 09:15:01;;;;;;;7.35;4.13;;;;;;;12.40;35.78;100757.00;5072779;28;20076;-64
2023/03/18 09:17:30;;;;;;;7.63;4.20;;;;;;;12.42;35.70;100755.09;5072688;28;20048;-65
2023/03/18 09:20:18;;;;;;;6.20;4.13;;;;;;;12.41;35.54;100748.88;5072623;28;20516;-65
2023/03/18 09:22:47;;;;;;;7.35;3.70;;;;;;;12.43;35.79;100749.63;5072542;28;20048;-65
2023/03/18 09:25:15;;;;;;;7.57;3.95;;;;;;;12.45;35.74;100745.09;5072600;28;20041;-66
2023/03/18 09:27:44;;;;;;;7.25;4.10;;;;;;;12.46;35.59;100744.13;5072627;28;20045;-64
2023/03/18 09:30:14;;;;;;;6.25;3.95;;;;;;;12.47;35.66;100737.81;5072435;28;20041;-66
2023/03/18 09:32:43;;;;;;;6.50;3.97;;;;;;;12.50;35.49;100745.66;5072401;28;20455;-64
2023/03/18 09:35:13;;;;;;;6.15;3.85;;;;;;;12.50;35.47;100742.13;5072040;28;20440;-66
2023/03/18 09:37:41;;;;;;;6.50;3.97;;;;;;;12.52;35.51;100740.19;5072306;28;20047;-65
2023/03/18 09:40:18;;;;;;;7.82;4.43;;;;;;;12.53;35.77;100745.47;5072096;28;20057;-64
2023/03/18 09:42:57;;;;;;;6.28;3.88;;;;;;;12.55;35.55;100734.69;5072386;28;20048;-64
2023/03/18 09:45:30;;;;;;;7.68;4.00;;;;;;;12.59;35.82;100741.56;5072166;28;20076;-65
2023/03/18 09:48:20;;;;;;;6.90;3.83;;;;;;;12.61;35.74;100740.50;5072369;28;20094;-65
2023/03/18 09:50:59;;;;;;;6.05;3.78;;;;;;;12.65;35.80;100735.84;5072274;28;20045;-64
2023/03/18 09:53:37;;;;;;;6.80;3.95;;;;;;;12.65;35.67;100738.53;5071994;28;20067;-65
2023/03/18 09:56:10;;;;;;;6.28;3.78;;;;;;;12.70;35.67;100730.19;5072094;28;20048;-66
2023/03/18 09:58:48;;;;;;;6.75;3.63;;;;;;;12.74;35.98;100734.41;5071908;28;20040;-65
2023/03/18 10:01:21;;;;;;;6.65;3.67;;;;;;;12.77;35.99;100729.72;5072152;28;20074;-65
2023/03/18 10:03:53;;;;;;;7.22;4.05;;;;;;;12.81;35.93;100730.41;5072048;28;20055;-65
2023/03/18 10:06:23;;;;;;;6.25;3.95;;;;;;;12.83;36.00;100733.81;5072115;28;20087;-66
2023/03/18 10:09:01;;;;;;;6.00;3.75;;;;;;;12.87;35.97;100730.03;5071822;28;20048;-65
2023/03/18 10:11:32;;;;;;;6.13;3.83;;;;;;;12.89;36.03;100722.75;5071847;28;20048;-65
2023/03/18 10:14:18;;;;;;;7.13;3.78;;;;;;;12.94;36.13;100715.31;5072008;28;20044;-65
2023/03/18 10:17:03;;;;;;;6.32;3.58;;;;;;;12.98;35.96;100713.28;5071971;28;20044;-66
2023/03/18 10:19:33;;;;;;;5.78;3.65;;;;;;;13.02;36.03;100712.97;5071389;28;20071;-66
2023/03/18 10:22:22;;;;;;;6.00;3.83;;;;;;;13.08;36.01;100709.06;5071560;28;20040;-65
2023/03/18 10:24:59;;;;;;;6.70;3.63;;;;;;;13.13;36.03;100715.00;5071763;28;20040;-65
2023/03/18 10:27:44;;;;;;;5.43;3.30;;;;;;;13.17;36.00;100714.69;5071937;28;20143;-65
2023/03/18 10:30:30;;;;;;;6.78;3.67;;;;;;;13.23;36.00;100707.28;5071456;28;20044;-64
2023/03/18 10:33:06;;;;;;;6.03;3.63;;;;;;;13.26;36.04;100709.75;5071782;28;20045;-64
2023/03/18 10:35:42;;;;;;;6.43;3.92;;;;;;;13.33;36.32;100706.59;5072069;28;20048;-65
2023/03/18 10:38:17;;;;;;;5.72;3.70;;;;;;;13.38;36.21;100707.13;5071654;28;20044;-65
2023/03/18 10:40:46;;;;;;;5.45;3.35;;;;;;;13.40;36.21;100696.31;5071389;28;20115;-66
2023/03/18 10:43:18;;;;;;;6.30;3.33;;;;;;;13.49;36.17;100700.22;5071572;28;20409;-66
2023/03/18 10:45:48;;;;;;;6.07;3.47;;;;;;;13.55;36.26;100700.69;5071533;28;20076;-65
2023/03/18 10:48:23;;;;;;;6.55;3.38;;;;;;;13.61;36.27;100702.97;5075267;28;20052;-68
2023/03/18 10:51:02;;;;;;;5.18;3.40;;;;;;;13.65;36.22;100696.44;5076257;28;20498;-65
2023/03/18 10:53:37;;;;;;;6.78;3.92;;;;;;;13.71;36.41;100696.06;5078623;28;20044;-66
2023/03/18 10:56:07;;;;;;;6.30;3.60;;;;;;;13.78;36.21;100699.16;5083462;28;20052;-65
2023/03/18 10:58:37;;;;;;;5.55;3.40;;;;;;;13.82;36.28;100686.44;5079872;28;20040;-66
2023/03/18 11:01:07;;;;;;;5.55;3.08;;;;;;;13.89;36.32;100672.47;5076014;28;20036;-66
2023/03/18 11:03:42;;;;;;;6.93;3.63;;;;;;;13.95;36.31;100677.44;5075440;28;20055;-65
2023/03/18 11:06:17;;;;;;;6.57;3.75;;;;;;;14.01;36.39;100670.81;5075665;28;20055;-65
2023/03/18 11:08:48;;;;;;;5.55;3.40;;;;;;;14.08;36.37;100671.25;5107809;28;20508;-65
2023/03/18 11:11:25;;;;;;;5.78;3.55;;;;;;;14.12;36.12;100667.41;5075161;28;20072;-64
2023/03/18 11:13:56;;;;;;;6.30;3.60;;;;;;;14.17;36.20;100660.75;5074899;28;20044;-65
2023/03/18 11:16:29;;;;;;;6.32;3.58;;;;;;;14.24;36.06;100664.72;5074876;28;20457;-64
2023/03/18 11:19:00;;;;;;;5.15;3.20;;;;;;;14.29;36.20;100654.56;5075109;28;20044;-64
2023/03/18 11:21:28;;;;;;;5.85;3.25;;;;;;;14.35;36.25;100663.13;5074782;28;20045;-65
2023/03/18 11:24:19;;;;;;;6.18;3.17;;;;;;;14.41;36.06;100655.53;5074791;28;20186;-64
2023/03/18 11:26:53;;;;;;;5.50;3.42;;;;;;;14.48;36.11;100648.81;5074851;28;20390;-65
2023/03/18 11:29:26;;;;;;;5.97;3.17;;;;;;;14.54;36.08;100636.75;5074840;28;20120;-65
2023/03/18 11:31:57;;;;;;;5.53;3.35;;;;;;;14.62;36.08;100638.91;5074499;28;20048;-64
2023/03/18 11:34:28;;;;;;;5.15;3.50;;;;;;;14.67;36.12;100629.56;5074558;28;20424;-64
2023/03/18 11:37:00;;;;;;;5.18;3.17;;;;;;;14.72;36.05;100624.72;5074520;28;20044;-65
2023/03/18 11:39:31;;;;;;;4.70;2.95;;;;;;;14.80;36.01;100632.22;5074594;28;20091;-65